createdAt,value
2023-01-28T00:00:01.130Z,24.2
2023-01-28T00:01:01.468Z,24
2023-01-28T00:02:01.190Z,22.8
2023-01-28T00:03:02.426Z,22.4
2023-01-28T00:04:02.214Z,22.2
2023-01-28T00:05:02.284Z,22.5
2023-01-28T00:06:01.424Z,22.5
2023-01-28T00:07:01.092Z,22
2023-01-28T00:08:01.066Z,21.4
2023-01-28T00:09:01.128Z,21.1
2023-01-28T00:10:01.225Z,21.2
2023-01-28T00:11:01.146Z,21
2023-01-28T00:12:01.152Z,21
2023-01-28T00:13:01.153Z,19.8
2023-01-28T00:14:01.158Z,19.5
2023-01-28T00:15:01.060Z,19.5
2023-01-28T00:16:01.152Z,19.6
2023-01-28T00:17:01.069Z,19.6
2023-01-28T00:18:01.092Z,20
2023-01-28T00:19:01.088Z,19.6
2023-01-28T00:20:01.492Z,19.3
2023-01-28T00:21:01.109Z,19
2023-01-28T00:22:01.128Z,19.1
2023-01-28T00:23:01.112Z,19.6
2023-01-28T00:24:01.240Z,19.4
2023-01-28T00:25:01.130Z,19
2023-01-28T00:26:01.523Z,19
2023-01-28T00:27:01.147Z,19
2023-01-28T00:28:01.140Z,18.6
2023-01-28T00:29:00.727Z,18.6
2023-01-28T00:30:00.344Z,18.6
2023-01-28T00:30:59.925Z,18.6
2023-01-28T00:31:59.927Z,18.6
2023-01-28T00:32:59.881Z,18.6
2023-01-28T00:34:01.076Z,18.5
2023-01-28T00:35:01.185Z,18.6
2023-01-28T00:36:00.780Z,18.6
2023-01-28T00:37:00.514Z,18.2
2023-01-28T00:38:00.185Z,18.2
2023-01-28T00:38:59.871Z,18.5
2023-01-28T00:39:59.584Z,18.3
2023-01-28T00:41:01.691Z,18.5
2023-01-28T00:42:02.478Z,18.6
2023-01-28T00:43:01.324Z,18.6
2023-01-28T00:44:02.047Z,18.6
2023-01-28T00:45:01.975Z,18.6
2023-01-28T00:46:01.821Z,18.6
2023-01-28T00:47:01.466Z,18.6
2023-01-28T00:48:01.172Z,18.6
2023-01-28T00:49:01.073Z,18.6
2023-01-28T00:50:01.205Z,18.6
2023-01-28T00:51:02.302Z,18.6
2023-01-28T00:52:01.124Z,18.6
2023-01-28T00:53:01.100Z,18.5
2023-01-28T00:54:01.028Z,18.5
2023-01-28T00:55:01.117Z,18.5
2023-01-28T00:56:05.090Z,18.6
2023-01-28T00:57:00.604Z,18.6
2023-01-28T00:58:00.143Z,18.6
2023-01-28T00:58:59.795Z,18.5
2023-01-28T01:00:01.655Z,18.5
2023-01-28T01:01:08.098Z,18.6
2023-01-28T01:02:02.080Z,18.5
2023-01-28T01:03:01.158Z,18.5
2023-01-28T01:04:01.080Z,18.5
2023-01-28T01:05:01.074Z,18.5
2023-01-28T01:06:10.360Z,18.6
2023-01-28T01:07:01.284Z,18.5
2023-01-28T01:08:02.533Z,18.6
2023-01-28T01:09:01.219Z,18.5
2023-01-28T01:10:02.503Z,18.5
2023-01-28T01:11:13.854Z,18.9
2023-01-28T01:12:01.129Z,18.7
2023-01-28T01:13:01.048Z,18.6
2023-01-28T01:14:01.373Z,18.5
2023-01-28T01:15:01.377Z,18.4
2023-01-28T01:16:16.144Z,18.4
2023-01-28T01:17:02.167Z,18.5
2023-01-28T01:18:01.154Z,18.5
2023-01-28T01:19:01.162Z,18.6
2023-01-28T01:20:01.105Z,18.4
2023-01-28T01:21:01.071Z,18.6
2023-01-28T01:22:01.090Z,18.5
2023-01-28T01:23:01.333Z,18.5
2023-01-28T01:24:01.383Z,18.4
2023-01-28T01:25:01.222Z,18.5
2023-01-28T01:26:01.093Z,18.4
2023-01-28T01:27:01.186Z,18.4
2023-01-28T01:28:01.155Z,18.4
2023-01-28T01:29:01.138Z,18.4
2023-01-28T01:30:01.123Z,18.4
2023-01-28T01:31:01.170Z,18.1
2023-01-28T01:32:01.637Z,17.8
2023-01-28T01:33:01.581Z,17.5
2023-01-28T01:34:01.487Z,17.7
2023-01-28T01:35:02.376Z,17.5
2023-01-28T01:36:01.099Z,17.4
2023-01-28T01:37:01.791Z,17.3
2023-01-28T01:38:02.662Z,17.3
2023-01-28T01:39:01.503Z,17.5
2023-01-28T01:40:01.156Z,17.3
2023-01-28T01:41:01.104Z,17.2
2023-01-28T01:42:01.458Z,17.3
2023-01-28T01:43:01.101Z,17.1
2023-01-28T01:44:01.118Z,17.1
2023-01-28T01:45:01.117Z,16.9
2023-01-28T01:46:01.186Z,16.7
2023-01-28T01:47:01.161Z,16.7
2023-01-28T01:48:01.138Z,16.7
2023-01-28T01:49:01.141Z,16.5
2023-01-28T01:50:01.164Z,16.6
2023-01-28T01:51:01.349Z,16.4
2023-01-28T01:52:01.170Z,16.4
2023-01-28T01:53:01.070Z,16.5
2023-01-28T01:54:01.083Z,16.5
2023-01-28T01:55:01.099Z,16
2023-01-28T01:56:01.093Z,15.9
2023-01-28T01:57:01.222Z,15.9
2023-01-28T01:58:01.985Z,16
2023-01-28T01:59:02.127Z,15.8
2023-01-28T02:00:01.108Z,15.9
2023-01-28T02:01:01.051Z,15.8
2023-01-28T02:02:01.342Z,15.8
2023-01-28T02:03:01.567Z,15.9
2023-01-28T02:04:02.561Z,15.8
2023-01-28T02:05:01.184Z,15.9
2023-01-28T02:06:01.532Z,16.1
2023-01-28T02:07:01.248Z,16.1
2023-01-28T02:08:02.482Z,16.2
2023-01-28T02:09:01.074Z,16.2
2023-01-28T02:10:01.065Z,16.2
2023-01-28T02:11:01.055Z,16.2
2023-01-28T02:12:01.117Z,16.2
2023-01-28T02:13:01.435Z,16.4
2023-01-28T02:14:01.485Z,16.5
2023-01-28T02:15:01.613Z,16.4
2023-01-28T02:16:01.406Z,16.6
2023-01-28T02:17:02.118Z,16.7
2023-01-28T02:18:01.575Z,16.7
2023-01-28T02:19:01.161Z,16.8
2023-01-28T02:20:02.519Z,16.7
2023-01-28T02:21:01.137Z,16.8
2023-01-28T02:22:01.550Z,17
2023-01-28T02:23:00.044Z,17.1
2023-01-28T02:23:59.828Z,17.2
2023-01-28T02:24:59.509Z,17.4
2023-01-28T02:26:01.972Z,17.5
2023-01-28T02:27:01.099Z,17.3
2023-01-28T02:28:01.080Z,17.4
2023-01-28T02:29:01.348Z,17.5
2023-01-28T02:30:01.078Z,17.5
2023-01-28T02:31:01.241Z,17.8
2023-01-28T02:32:03.426Z,17.7
2023-01-28T02:33:01.959Z,17.8
2023-01-28T02:34:01.125Z,17.8
2023-01-28T02:35:01.123Z,18.1
2023-01-28T02:36:02.475Z,18
2023-01-28T02:37:06.580Z,18.1
2023-01-28T02:38:02.108Z,18.2
2023-01-28T02:39:01.138Z,18.2
2023-01-28T02:40:01.163Z,18.2
2023-01-28T02:41:01.157Z,18.3
2023-01-28T02:42:09.224Z,18.2
2023-01-28T02:43:01.082Z,18.2
2023-01-28T02:44:01.124Z,18.2
2023-01-28T02:45:01.656Z,18.3
2023-01-28T02:46:01.551Z,18.2
2023-01-28T02:47:13.183Z,18.3
2023-01-28T02:48:01.215Z,18.3
2023-01-28T02:49:01.905Z,18.3
2023-01-28T02:50:01.138Z,18.4
2023-01-28T02:51:01.133Z,18.5
2023-01-28T02:52:15.037Z,18.5
2023-01-28T02:53:01.094Z,18.7
2023-01-28T02:54:01.143Z,18.7
2023-01-28T02:55:01.152Z,18.7
2023-01-28T02:56:01.156Z,18.8
2023-01-28T02:57:01.161Z,19
2023-01-28T02:58:01.077Z,19.1
2023-01-28T02:59:01.066Z,18.9
2023-01-28T03:00:01.085Z,19.1
2023-01-28T03:01:01.089Z,18.9
2023-01-28T03:02:01.091Z,19
2023-01-28T03:03:01.326Z,18.9
2023-01-28T03:04:01.339Z,19
2023-01-28T03:05:02.024Z,18.7
2023-01-28T03:06:02.126Z,18.8
2023-01-28T03:07:01.253Z,18.6
2023-01-28T03:08:01.127Z,18.7
2023-01-28T03:09:01.069Z,18.6
2023-01-28T03:10:01.086Z,18.8
2023-01-28T03:11:01.662Z,18.8
2023-01-28T03:12:01.215Z,19
2023-01-28T03:13:01.971Z,18.7
2023-01-28T03:14:01.462Z,18.7
2023-01-28T03:15:00.816Z,18.4
2023-01-28T03:16:00.970Z,18.3
2023-01-28T03:17:01.480Z,18.2
2023-01-28T03:18:01.080Z,18.4
2023-01-28T03:19:01.108Z,18.6
2023-01-28T03:20:01.121Z,18.5
2023-01-28T03:21:01.107Z,18.5
2023-01-28T03:22:01.130Z,18.4
2023-01-28T03:23:01.514Z,18.4
2023-01-28T03:24:01.258Z,18.6
2023-01-28T03:25:01.292Z,18.4
2023-01-28T03:26:01.138Z,18.4
2023-01-28T03:27:01.143Z,18.2
2023-01-28T03:28:01.182Z,18.2
2023-01-28T03:29:01.148Z,18.2
2023-01-28T03:30:01.372Z,18.2
2023-01-28T03:31:01.130Z,18.2
2023-01-28T03:32:01.224Z,18.2
2023-01-28T03:33:01.429Z,18.2
2023-01-28T03:34:02.305Z,18.2
2023-01-28T03:35:01.094Z,18.2
2023-01-28T03:36:01.108Z,18
2023-01-28T03:37:01.102Z,18.1
2023-01-28T03:38:01.113Z,18
2023-01-28T03:39:01.107Z,18
2023-01-28T03:40:01.172Z,17.8
2023-01-28T03:41:01.496Z,17.8
2023-01-28T03:42:01.544Z,17.6
2023-01-28T03:43:01.143Z,17.3
2023-01-28T03:44:01.177Z,17.3
2023-01-28T03:45:01.816Z,17.2
2023-01-28T03:46:01.235Z,17.2
2023-01-28T03:47:01.167Z,17.2
2023-01-28T03:48:01.318Z,17.1
2023-01-28T03:49:00.967Z,16.8
2023-01-28T03:50:00.564Z,16.6
2023-01-28T03:51:00.303Z,16.5
2023-01-28T03:51:59.950Z,16.6
2023-01-28T03:52:59.556Z,16.7
2023-01-28T03:54:01.219Z,16.5
2023-01-28T03:55:02.459Z,16.5
2023-01-28T03:56:01.895Z,16.2
2023-01-28T03:57:01.702Z,16.1
2023-01-28T03:58:01.243Z,16.1
2023-01-28T03:59:01.946Z,16.1
2023-01-28T04:00:02.662Z,15.9
2023-01-28T04:01:01.147Z,16
2023-01-28T04:02:01.231Z,15.8
2023-01-28T04:03:01.260Z,15.8
2023-01-28T04:04:01.867Z,15.8
2023-01-28T04:05:02.077Z,15.8
2023-01-28T04:06:02.428Z,16
2023-01-28T04:07:01.887Z,16
2023-01-28T04:08:01.237Z,16.1
2023-01-28T04:09:01.478Z,16
2023-01-28T04:10:02.340Z,15.9
2023-01-28T04:11:02.179Z,15.7
2023-01-28T04:12:01.345Z,16
2023-01-28T04:13:01.191Z,16
2023-01-28T04:14:01.137Z,15.9
2023-01-28T04:15:01.167Z,15.8
2023-01-28T04:16:01.188Z,15.2
2023-01-28T04:17:01.152Z,15.2
2023-01-28T04:18:00.847Z,15.2
2023-01-28T04:19:01.340Z,15
2023-01-28T04:20:01.273Z,15
2023-01-28T04:21:02.118Z,14.8
2023-01-28T04:22:01.079Z,14.7
2023-01-28T04:23:04.494Z,15
2023-01-28T04:24:01.445Z,14.3
2023-01-28T04:25:01.059Z,13.8
2023-01-28T04:26:01.184Z,13.7
2023-01-28T04:27:01.891Z,13.6
2023-01-28T04:28:06.492Z,13.5
2023-01-28T04:29:00.586Z,13.3
2023-01-28T04:30:00.521Z,13.3
2023-01-28T04:31:00.267Z,12.9
2023-01-28T04:31:59.912Z,12.8
2023-01-28T04:33:08.559Z,12.9
2023-01-28T04:34:01.351Z,13.1
2023-01-28T04:35:02.608Z,13
2023-01-28T04:36:03.369Z,13
2023-01-28T04:37:01.105Z,12.9
2023-01-28T04:38:11.461Z,13.1
2023-01-28T04:39:01.210Z,13.1
2023-01-28T04:40:02.274Z,12.9
2023-01-28T04:41:01.102Z,12.6
2023-01-28T04:42:01.106Z,12.7
2023-01-28T04:43:13.463Z,12.9
2023-01-28T04:44:01.125Z,13
2023-01-28T04:45:01.922Z,13
2023-01-28T04:46:01.505Z,13.1
2023-01-28T04:47:01.149Z,13.1
2023-01-28T04:48:01.074Z,13
2023-01-28T04:49:01.130Z,12.9
2023-01-28T04:50:01.086Z,12.8
2023-01-28T04:51:01.168Z,12.9
2023-01-28T04:52:01.164Z,13
2023-01-28T04:53:01.171Z,13.1
2023-01-28T04:54:01.474Z,13
2023-01-28T04:55:03.916Z,13.2
2023-01-28T04:56:01.084Z,13.2
2023-01-28T04:57:01.112Z,13.2
2023-01-28T04:58:01.139Z,13.2
2023-01-28T04:59:01.358Z,13.1
2023-01-28T05:00:00.769Z,13.2
2023-01-28T05:01:00.720Z,13.1
2023-01-28T05:02:00.531Z,13.2
2023-01-28T05:03:00.514Z,13.2
2023-01-28T05:04:00.188Z,13.3
2023-01-28T05:04:59.791Z,13.4
2023-01-28T05:06:01.439Z,13.3
2023-01-28T05:07:01.211Z,13.3
2023-01-28T05:08:01.876Z,13.4
2023-01-28T05:09:01.170Z,13.4
2023-01-28T05:10:01.064Z,13.4
2023-01-28T05:11:01.075Z,13.6
2023-01-28T05:12:01.090Z,13.8
2023-01-28T05:13:01.089Z,14
2023-01-28T05:14:01.221Z,14
2023-01-28T05:15:01.093Z,14.1
2023-01-28T05:16:01.097Z,13.9
2023-01-28T05:17:01.130Z,13.6
2023-01-28T05:18:01.133Z,13.6
2023-01-28T05:19:01.127Z,13.5
2023-01-28T05:20:01.118Z,13.4
2023-01-28T05:21:01.151Z,13.6
2023-01-28T05:22:01.425Z,13.6
2023-01-28T05:23:01.591Z,13.5
2023-01-28T05:24:01.129Z,13.5
2023-01-28T05:25:01.230Z,13.3
2023-01-28T05:26:01.178Z,12.9
2023-01-28T05:27:02.076Z,12.7
2023-01-28T05:28:01.105Z,12.6
2023-01-28T05:29:01.350Z,12.3
2023-01-28T05:30:01.299Z,12.4
2023-01-28T05:31:02.044Z,12.5
2023-01-28T05:32:05.297Z,12.2
2023-01-28T05:33:01.113Z,12.2
2023-01-28T05:34:01.115Z,12.2
2023-01-28T05:35:01.815Z,12.3
2023-01-28T05:36:00.840Z,12.4
2023-01-28T05:37:00.524Z,12.4
2023-01-28T05:38:00.164Z,11.9
2023-01-28T05:38:59.909Z,11.9
2023-01-28T05:39:59.611Z,11.8
2023-01-28T05:41:02.171Z,11.7
2023-01-28T05:42:02.360Z,11.4
2023-01-28T05:43:01.109Z,11.3
2023-01-28T05:44:01.083Z,11.5
2023-01-28T05:45:01.084Z,11.7
2023-01-28T05:46:01.432Z,11.7
2023-01-28T05:47:01.371Z,11.7
2023-01-28T05:48:02.114Z,11.9
2023-01-28T05:49:01.148Z,12
2023-01-28T05:50:01.800Z,12
2023-01-28T05:51:01.927Z,12.3
2023-01-28T05:52:01.835Z,12
2023-01-28T05:53:01.154Z,12
2023-01-28T05:54:01.136Z,12.1
2023-01-28T05:55:00.739Z,12
2023-01-28T05:56:00.429Z,11.8
2023-01-28T05:57:00.140Z,11.4
2023-01-28T05:57:59.837Z,11
2023-01-28T05:59:04.650Z,11.1
2023-01-28T06:00:02.628Z,11.2
2023-01-28T06:01:04.520Z,11.3
2023-01-28T06:02:01.406Z,11.4
2023-01-28T06:03:02.125Z,11
2023-01-28T06:04:01.139Z,9.8
2023-01-28T06:05:01.498Z,9.8
2023-01-28T06:06:01.116Z,9.2
2023-01-28T06:07:01.281Z,8.7
2023-01-28T06:08:01.155Z,8.3
2023-01-28T06:09:03.529Z,8.3
2023-01-28T06:10:01.146Z,8.1
2023-01-28T06:11:01.325Z,7.9
2023-01-28T06:12:01.159Z,7.8
2023-01-28T06:13:01.158Z,7.3
2023-01-28T06:14:04.947Z,6.7
2023-01-28T06:15:01.210Z,6
2023-01-28T06:16:01.326Z,6
2023-01-28T06:17:01.454Z,6
2023-01-28T06:18:01.125Z,5.9
2023-01-28T06:19:08.057Z,5.9
2023-01-28T06:20:01.979Z,5.3
2023-01-28T06:21:01.335Z,4.4
2023-01-28T06:22:02.139Z,3.8
2023-01-28T06:23:02.018Z,2.5
2023-01-28T06:24:10.015Z,2.3
2023-01-28T06:25:00.792Z,1.7
2023-01-28T06:26:00.528Z,2
2023-01-28T06:27:00.202Z,1
2023-01-28T06:27:59.814Z,1
2023-01-28T06:29:13.604Z,1
2023-01-28T06:30:01.149Z,1
2023-01-28T06:31:04.208Z,1
2023-01-28T06:32:00.393Z,1
2023-01-28T06:33:00.153Z,1
2023-01-28T06:34:15.050Z,1
2023-01-28T06:35:03.955Z,1
2023-01-28T06:36:01.211Z,1
2023-01-28T06:37:01.083Z,1
2023-01-28T06:38:01.106Z,1
2023-01-28T06:39:01.122Z,1
2023-01-28T06:40:01.073Z,1
2023-01-28T06:41:01.047Z,1
2023-01-28T06:42:01.127Z,1
2023-01-28T06:43:01.128Z,1
2023-01-28T06:44:01.145Z,1
2023-01-28T06:45:00.822Z,1
2023-01-28T06:46:00.521Z,1
2023-01-28T06:47:00.133Z,1
2023-01-28T06:47:59.742Z,1
2023-01-28T06:49:01.763Z,1
2023-01-28T06:50:01.217Z,1
2023-01-28T06:51:02.517Z,1
2023-01-28T06:52:01.150Z,1
2023-01-28T06:53:01.293Z,1
2023-01-28T06:54:01.304Z,1
2023-01-28T06:55:02.427Z,1
2023-01-28T06:56:01.129Z,1
2023-01-28T06:57:01.122Z,1
2023-01-28T06:58:01.118Z,1
2023-01-28T06:59:01.065Z,1
2023-01-28T07:00:01.240Z,1
2023-01-28T07:01:01.656Z,1
2023-01-28T07:02:01.181Z,1
2023-01-28T07:03:01.249Z,1
2023-01-28T07:04:03.886Z,1
2023-01-28T07:05:01.554Z,1
2023-01-28T07:06:01.085Z,1
2023-01-28T07:07:01.084Z,1
2023-01-28T07:08:01.202Z,1
2023-01-28T07:09:01.111Z,1
2023-01-28T07:10:01.208Z,1
2023-01-28T07:11:01.236Z,1
2023-01-28T07:12:01.559Z,1
2023-01-28T07:13:01.151Z,1
2023-01-28T07:14:01.220Z,1
2023-01-28T07:15:01.141Z,1
2023-01-28T07:16:01.401Z,1
2023-01-28T07:17:01.482Z,1
2023-01-28T07:18:02.174Z,1
2023-01-28T07:19:01.182Z,1
2023-01-28T07:20:01.066Z,1
2023-01-28T07:21:01.123Z,1
2023-01-28T07:22:01.103Z,1
2023-01-28T07:23:01.124Z,1
2023-01-28T07:24:01.156Z,1
2023-01-28T07:25:00.885Z,1
2023-01-28T07:26:01.736Z,1
2023-01-28T07:27:01.233Z,1
2023-01-28T07:28:01.115Z,1
2023-01-28T07:29:01.130Z,1
2023-01-28T07:30:01.093Z,1
2023-01-28T07:31:01.257Z,1
2023-01-28T07:32:01.254Z,1
2023-01-28T07:33:02.072Z,1
2023-01-28T07:34:01.153Z,1
2023-01-28T07:35:01.435Z,1
2023-01-28T07:36:01.165Z,1
2023-01-28T07:37:01.892Z,1
2023-01-28T07:38:01.059Z,1
2023-01-28T07:39:01.088Z,1
2023-01-28T07:40:00.788Z,1
2023-01-28T07:41:00.464Z,1
2023-01-28T07:42:00.389Z,1
2023-01-28T07:43:00.412Z,1
2023-01-28T07:44:00.688Z,1
2023-01-28T07:45:00.397Z,1
2023-01-28T07:46:00.187Z,1
2023-01-28T07:46:59.818Z,1
2023-01-28T07:47:59.489Z,1
2023-01-28T07:49:01.754Z,1
2023-01-28T07:50:02.548Z,1
2023-01-28T07:51:02.025Z,1
2023-01-28T07:52:02.078Z,1
2023-01-28T07:53:01.273Z,1
2023-01-28T07:54:00.685Z,1
2023-01-28T07:55:02.881Z,1
2023-01-28T07:56:01.398Z,1
2023-01-28T07:57:01.076Z,1
2023-01-28T07:58:01.738Z,1
2023-01-28T07:59:01.411Z,1
2023-01-28T08:00:05.352Z,1
2023-01-28T08:01:01.599Z,1
2023-01-28T08:02:01.919Z,1
2023-01-28T08:03:02.709Z,1
2023-01-28T08:04:01.454Z,1
2023-01-28T08:05:07.135Z,1
2023-01-28T08:06:01.220Z,1
2023-01-28T08:07:01.396Z,1
2023-01-28T08:08:01.062Z,1
2023-01-28T08:09:01.148Z,1
2023-01-28T08:10:10.477Z,1
2023-01-28T08:11:01.071Z,1
2023-01-28T08:12:01.501Z,1
2023-01-28T08:13:01.080Z,1
2023-01-28T08:14:01.090Z,1
2023-01-28T08:15:13.938Z,1
2023-01-28T08:16:01.106Z,1
2023-01-28T08:17:01.054Z,1
2023-01-28T08:18:01.381Z,1
2023-01-28T08:19:01.419Z,1
2023-01-28T08:20:17.391Z,1
2023-01-28T08:21:01.194Z,1
2023-01-28T08:22:01.603Z,1
2023-01-28T08:23:01.147Z,1
2023-01-28T08:24:01.202Z,1
2023-01-28T08:25:00.866Z,1
2023-01-28T08:26:01.569Z,1
2023-01-28T08:27:01.063Z,1
2023-01-28T08:28:01.083Z,1
2023-01-28T08:29:01.072Z,1
2023-01-28T08:30:01.097Z,1
2023-01-28T08:31:02.180Z,1
2023-01-28T08:32:01.290Z,1
2023-01-28T08:33:00.914Z,1
2023-01-28T08:34:02.257Z,1
2023-01-28T08:35:01.080Z,1
2023-01-28T08:36:04.161Z,1
2023-01-28T08:37:01.929Z,1
2023-01-28T08:38:01.147Z,1
2023-01-28T08:39:01.168Z,1
2023-01-28T08:40:01.151Z,1
2023-01-28T08:41:01.167Z,1
2023-01-28T08:42:01.180Z,1
2023-01-28T08:43:01.062Z,1
2023-01-28T08:44:01.078Z,1
2023-01-28T08:45:00.785Z,1
2023-01-28T08:46:00.845Z,1
2023-01-28T08:47:01.411Z,1
2023-01-28T08:48:01.456Z,1
2023-01-28T08:49:02.499Z,1
2023-01-28T08:50:02.012Z,1
2023-01-28T08:51:01.801Z,1
2023-01-28T08:52:01.134Z,1
2023-01-28T08:53:01.140Z,1
2023-01-28T08:54:01.350Z,1
2023-01-28T08:55:01.106Z,1
2023-01-28T08:56:01.176Z,1
2023-01-28T08:57:01.477Z,1
2023-01-28T08:58:05.104Z,1
2023-01-28T08:59:01.162Z,1
2023-01-28T09:00:01.223Z,1
2023-01-28T09:01:01.089Z,1
2023-01-28T09:02:01.111Z,1
2023-01-28T09:03:01.641Z,1
2023-01-28T09:04:01.243Z,1
2023-01-28T09:05:00.955Z,1
2023-01-28T09:06:01.568Z,1
2023-01-28T09:07:02.496Z,1
2023-01-28T09:08:01.187Z,1
2023-01-28T09:09:01.152Z,1
2023-01-28T09:10:01.136Z,1
2023-01-28T09:11:01.287Z,1
2023-01-28T09:12:01.196Z,1
2023-01-28T09:13:01.187Z,1
2023-01-28T09:14:01.183Z,1
2023-01-28T09:15:01.392Z,1
2023-01-28T09:16:01.321Z,1
2023-01-28T09:17:01.080Z,1
2023-01-28T09:18:02.145Z,1
2023-01-28T09:19:01.116Z,1
2023-01-28T09:20:01.785Z,1
2023-01-28T09:21:01.206Z,1
2023-01-28T09:22:01.475Z,1
2023-01-28T09:23:02.193Z,1
2023-01-28T09:24:01.270Z,1
2023-01-28T09:25:00.926Z,1
2023-01-28T09:26:01.132Z,1
2023-01-28T09:27:01.135Z,1
2023-01-28T09:28:01.134Z,1
2023-01-28T09:29:01.713Z,1
2023-01-28T09:30:01.399Z,1
2023-01-28T09:31:02.407Z,1
2023-01-28T09:32:01.387Z,1
2023-01-28T09:33:01.291Z,1
2023-01-28T09:34:01.434Z,1
2023-01-28T09:35:01.187Z,1
2023-01-28T09:36:03.894Z,1
2023-01-28T09:37:01.290Z,1
2023-01-28T09:38:01.227Z,1
2023-01-28T09:39:03.258Z,1
2023-01-28T09:40:02.097Z,1
2023-01-28T09:41:01.991Z,1
2023-01-28T09:42:01.136Z,1
2023-01-28T09:43:01.168Z,1
2023-01-28T09:44:01.721Z,1
2023-01-28T09:45:01.564Z,1
2023-01-28T09:46:05.477Z,1
2023-01-28T09:47:02.062Z,1
2023-01-28T09:48:02.595Z,1
2023-01-28T09:49:01.097Z,1
2023-01-28T09:50:01.088Z,1
2023-01-28T09:51:09.386Z,1
2023-01-28T09:52:02.617Z,1
2023-01-28T09:53:02.633Z,1
2023-01-28T09:54:02.577Z,1
2023-01-28T09:55:01.471Z,1
2023-01-28T09:56:12.593Z,1
2023-01-28T09:57:01.134Z,1
2023-01-28T09:58:01.166Z,1
2023-01-28T09:59:01.242Z,1
2023-01-28T10:00:01.896Z,1
2023-01-28T10:01:14.836Z,1
2023-01-28T10:02:01.056Z,1
2023-01-28T10:03:01.169Z,1
2023-01-28T10:04:01.213Z,1
2023-01-28T10:05:01.138Z,1
2023-01-28T10:06:16.968Z,1
2023-01-28T10:07:01.135Z,1
2023-01-28T10:08:01.070Z,1
2023-01-28T10:09:01.080Z,1
2023-01-28T10:10:00.831Z,1
2023-01-28T10:11:00.589Z,1
2023-01-28T10:12:00.479Z,1
2023-01-28T10:13:00.509Z,1
2023-01-28T10:14:00.196Z,1
2023-01-28T10:14:59.903Z,1
2023-01-28T10:15:59.575Z,1
2023-01-28T10:17:01.185Z,1
2023-01-28T10:18:16.164Z,1
2023-01-28T10:19:01.956Z,1
2023-01-28T10:20:02.173Z,1
2023-01-28T10:21:01.181Z,1
2023-01-28T10:22:01.489Z,1
2023-01-28T10:23:01.587Z,1
2023-01-28T10:24:01.176Z,1
2023-01-28T10:25:00.879Z,1
2023-01-28T10:26:01.141Z,1
2023-01-28T10:27:01.112Z,1
2023-01-28T10:28:10.595Z,1
2023-01-28T10:29:01.157Z,1
2023-01-28T10:30:01.190Z,1
2023-01-28T10:31:02.180Z,1
2023-01-28T10:32:01.561Z,1
2023-01-28T10:33:02.261Z,1
2023-01-28T10:34:01.755Z,1
2023-01-28T10:35:11.015Z,1
2023-01-28T10:36:32.631Z,1
2023-01-28T10:37:31.697Z,1
2023-01-28T10:38:43.525Z,1
2023-01-28T10:39:02.807Z,1
2023-01-28T10:40:01.141Z,1
2023-01-28T10:41:01.917Z,1
2023-01-28T10:42:01.123Z,1
2023-01-28T10:43:01.195Z,1
2023-01-28T10:44:02.021Z,1
2023-01-28T10:45:02.627Z,1
2023-01-28T10:46:16.126Z,1
2023-01-28T10:47:20.210Z,1
2023-01-28T10:48:31.280Z,1
2023-01-28T10:49:05.123Z,1
2023-01-28T10:50:01.220Z,1
2023-01-28T10:51:02.517Z,1
2023-01-28T10:52:01.567Z,1
2023-01-28T10:53:02.286Z,1
2023-01-28T10:54:01.373Z,1
2023-01-28T10:55:01.393Z,1
2023-01-28T10:56:02.512Z,1
2023-01-28T10:57:01.527Z,1
2023-01-28T10:58:02.334Z,1
2023-01-28T10:59:01.585Z,1
2023-01-28T11:00:01.323Z,1
2023-01-28T11:01:01.252Z,1
2023-01-28T11:02:01.793Z,1
2023-01-28T11:03:01.206Z,1
2023-01-28T11:04:01.146Z,1
2023-01-28T11:05:01.971Z,1
2023-01-28T11:06:01.140Z,1
2023-01-28T11:07:01.292Z,1
2023-01-28T11:08:01.338Z,1
2023-01-28T11:09:01.706Z,1
2023-01-28T11:10:01.413Z,1
2023-01-28T11:11:01.381Z,1
2023-01-28T11:12:01.217Z,1
2023-01-28T11:13:02.899Z,1
2023-01-28T11:14:01.112Z,1
2023-01-28T11:15:00.620Z,1
2023-01-28T11:16:00.376Z,1
2023-01-28T11:16:59.955Z,1
2023-01-28T11:17:59.697Z,1
2023-01-28T11:19:02.448Z,1
2023-01-28T11:20:02.134Z,1
2023-01-28T11:21:01.141Z,1
2023-01-28T11:22:01.556Z,1
2023-01-28T11:23:01.306Z,1
2023-01-28T11:24:01.231Z,1
2023-01-28T11:25:03.033Z,1
2023-01-28T11:26:01.834Z,1
2023-01-28T11:27:01.800Z,1
2023-01-28T11:28:02.022Z,1
2023-01-28T11:29:01.099Z,1
2023-01-28T11:30:01.300Z,1
2023-01-28T11:31:01.242Z,1
2023-01-28T11:32:04.055Z,1
2023-01-28T11:33:01.109Z,1
2023-01-28T11:34:04.112Z,1
2023-01-28T11:35:01.032Z,1
2023-01-28T11:36:01.167Z,1
2023-01-28T11:37:01.924Z,1
2023-01-28T11:38:01.501Z,1
2023-01-28T11:39:01.071Z,1
2023-01-28T11:40:01.205Z,1
2023-01-28T11:41:01.161Z,1
2023-01-28T11:42:01.811Z,1
2023-01-28T11:43:01.069Z,1
2023-01-28T11:44:01.079Z,1
2023-01-28T11:45:01.089Z,1
2023-01-28T11:46:03.301Z,1
2023-01-28T11:47:05.094Z,1
2023-01-28T11:48:01.103Z,1
2023-01-28T11:49:01.096Z,1
2023-01-28T11:50:01.889Z,1
2023-01-28T11:51:01.142Z,1
2023-01-28T11:52:06.626Z,1
2023-01-28T11:53:08.359Z,1
2023-01-28T11:54:01.439Z,1
2023-01-28T11:55:00.667Z,1
2023-01-28T11:56:00.311Z,1
2023-01-28T11:57:08.637Z,1
2023-01-28T11:58:01.165Z,1
2023-01-28T11:59:01.209Z,1
2023-01-28T12:00:01.109Z,1
2023-01-28T12:01:01.071Z,1
2023-01-28T12:02:10.587Z,1
2023-01-28T12:03:01.231Z,1
2023-01-28T12:04:01.289Z,1
2023-01-28T12:05:01.454Z,1
2023-01-28T12:06:02.231Z,1
2023-01-28T12:07:12.887Z,1
2023-01-28T12:08:01.260Z,1
2023-01-28T12:09:01.128Z,1
2023-01-28T12:10:01.135Z,1
2023-01-28T12:11:01.127Z,1
2023-01-28T12:12:15.487Z,1
2023-01-28T12:13:01.298Z,1
2023-01-28T12:14:01.335Z,1
2023-01-28T12:15:01.205Z,1
2023-01-28T12:16:01.107Z,1
2023-01-28T12:17:01.065Z,1
2023-01-28T12:18:01.075Z,1
2023-01-28T12:19:01.072Z,1
2023-01-28T12:20:01.111Z,1
2023-01-28T12:21:01.093Z,1
2023-01-28T12:22:01.089Z,1
2023-01-28T12:23:01.178Z,1
2023-01-28T12:24:01.151Z,1
2023-01-28T12:25:01.129Z,1
2023-01-28T12:26:01.114Z,1
2023-01-28T12:27:01.065Z,1
2023-01-28T12:28:01.237Z,1
2023-01-28T12:29:01.053Z,1
2023-01-28T12:30:01.409Z,1
2023-01-28T12:31:01.537Z,1
2023-01-28T12:32:02.210Z,1
2023-01-28T12:33:01.502Z,1
2023-01-28T12:34:01.680Z,1
2023-01-28T12:35:01.927Z,1
2023-01-28T12:36:01.993Z,1
2023-01-28T12:37:02.528Z,1
2023-01-28T12:38:01.518Z,1
2023-01-28T12:39:01.292Z,1
2023-01-28T12:40:02.415Z,1
2023-01-28T12:41:02.189Z,1
2023-01-28T12:42:01.347Z,1
2023-01-28T12:43:01.377Z,1
2023-01-28T12:44:01.333Z,1
2023-01-28T12:45:02.101Z,1
2023-01-28T12:46:01.195Z,1
2023-01-28T12:47:03.375Z,1
2023-01-28T12:48:01.580Z,1
2023-01-28T12:49:01.571Z,1
2023-01-28T12:50:01.127Z,1
2023-01-28T12:51:01.141Z,1
2023-01-28T12:52:01.074Z,1
2023-01-28T12:53:01.085Z,1
2023-01-28T12:54:01.106Z,1
2023-01-28T12:55:01.283Z,1
2023-01-28T12:56:01.427Z,1
2023-01-28T12:57:01.441Z,1
2023-01-28T12:58:01.106Z,1
2023-01-28T12:59:01.120Z,1
2023-01-28T13:00:01.149Z,1
2023-01-28T13:01:01.882Z,1
2023-01-28T13:02:01.229Z,1
2023-01-28T13:03:01.187Z,1
2023-01-28T13:04:01.321Z,1
2023-01-28T13:05:01.382Z,1
2023-01-28T13:06:01.568Z,1
2023-01-28T13:07:01.597Z,1
2023-01-28T13:08:01.799Z,1
2023-01-28T13:09:01.766Z,1
2023-01-28T13:10:02.090Z,1
2023-01-28T13:11:01.362Z,1
2023-01-28T13:12:02.113Z,1
2023-01-28T13:13:02.015Z,1
2023-01-28T13:14:01.538Z,1
2023-01-28T13:15:01.159Z,1
2023-01-28T13:16:01.253Z,1
2023-01-28T13:17:01.402Z,1
2023-01-28T13:18:01.351Z,1
2023-01-28T13:19:02.607Z,1
2023-01-28T13:20:01.780Z,1
2023-01-28T13:21:02.371Z,1
2023-01-28T13:22:02.483Z,1
2023-01-28T13:23:02.213Z,1
2023-01-28T13:24:01.118Z,1
2023-01-28T13:25:01.176Z,1
2023-01-28T13:26:01.112Z,1
2023-01-28T13:27:01.158Z,1
2023-01-28T13:28:01.079Z,1
2023-01-28T13:29:01.324Z,1
2023-01-28T13:30:01.347Z,1
2023-01-28T13:31:01.418Z,1
2023-01-28T13:32:02.052Z,1
2023-01-28T13:33:02.671Z,1
2023-01-28T13:34:01.365Z,1
2023-01-28T13:35:01.054Z,1
2023-01-28T13:36:01.155Z,1
2023-01-28T13:37:01.155Z,1
2023-01-28T13:38:05.027Z,1
2023-01-28T13:39:01.148Z,1
2023-01-28T13:40:01.084Z,1
2023-01-28T13:41:01.344Z,1
2023-01-28T13:42:01.360Z,1
2023-01-28T13:43:06.962Z,1
2023-01-28T13:44:02.044Z,1
2023-01-28T13:45:01.113Z,1
2023-01-28T13:46:01.195Z,1
2023-01-28T13:47:01.126Z,1
2023-01-28T13:48:08.455Z,1
2023-01-28T13:49:01.138Z,1
2023-01-28T13:50:03.335Z,1
2023-01-28T13:51:01.074Z,1
2023-01-28T13:52:00.737Z,1
2023-01-28T13:53:10.628Z,1
2023-01-28T13:54:01.637Z,1
2023-01-28T13:55:02.126Z,1
2023-01-28T13:56:01.536Z,1
2023-01-28T13:57:01.091Z,1
2023-01-28T13:58:13.796Z,1
2023-01-28T13:59:01.147Z,1
2023-01-28T14:00:01.449Z,1
2023-01-28T14:01:05.798Z,1
2023-01-28T14:02:03.677Z,1
2023-01-28T14:03:15.259Z,1
2023-01-28T14:04:01.370Z,1
2023-01-28T14:05:37.989Z,1
2023-01-28T14:06:55.670Z,1
2023-01-28T14:07:01.049Z,1
2023-01-28T14:08:17.089Z,1